Terminal Aerodrome Forecast
Issued by NWS

Home | Current Version | Previous Version | Text Only | Print | Product List | Glossary On
Versions: 1 2 3 4 5 6 7 8 9 10 11 12 13 14 15 16
623
FTUS46 KMTR 191726
TAFOAK
TAF
KOAK 191726Z 1918/2024 25005KT P6SM VCSH FEW020 SCT050 SCT200
     FM192000 30007KT P6SM -SHRA SCT020 BKN050 BKN120
     FM200000 29010KT P6SM VCSH FEW025 SCT090 BKN120
     FM200400 32007KT P6SM FEW030 SCT050 SCT150
     FM200900 33005KT P6SM FEW010 SCT150
     FM201800 28008KT P6SM FEW010 SCT200=

USA.gov is the U.S. government's official web portal to all federal, state and local government web resources and services.